aviador You're here:

KS32 Decoded Metar

in
Report Time2017-07-26 22:35:00
UTC Time2017-07-26 22:28:34
Flight Rules vfr VFR
Wind010° at 09 kt
W.Rank010° ranks 20
Current wind is below 010° avg. (10.6)
Visibility9999 m
Phenomena:N/A
Clouds:N/A
Expected CloudBase > 4,400 ft AGL from Temp-Dew spread
CeilingNone
Temp26°C
Dew Point15°C (51% RH)
AAT24.4°C
QNH1019 hPa
Raw Report
KS32 262235Z AUTO 01009KT 10SM CLR 26/15 A3010 RMK AO2=

Extra information for KS32:More info

Social comments